Time;durP1;ratioP1;P1;durP2;ratioP2;P2;SDS_P1;SDS_P2;PMS_P1;PMS_P2;Temp;Humidity;BMP_temperature;BMP_pressure;BME280_temperature;BME280_humidity;BME280_pressure;Samples;Min_cycle;Max_cycle;Signal;HPM_P1;HPM_P2
2022/12/22 03:26:22;;;;;;;2.08;1.60;;;;;20.60;99122.00;;;;2071460;28;20206;-50
2022/12/22 03:27:22;;;;;;;2.17;1.80;;;;;20.60;99129.00;;;;2063749;28;20310;-51
2022/12/22 03:28:25;;;;;;;2.80;2.23;;;;;20.70;99115.00;;;;2063806;28;20231;-50
2022/12/22 03:29:25;;;;;;;2.20;1.90;;;;;20.60;99114.00;;;;2062935;28;20218;-53
2022/12/22 03:30:26;;;;;;;4.30;1.70;;;;;20.60;99122.00;;;;2063362;28;20632;-52
2022/12/22 03:31:26;;;;;;;3.33;1.70;;;;;20.60;99116.00;;;;2054989;28;20235;-51
2022/12/22 03:32:26;;;;;;;2.50;1.90;;;;;20.60;99112.00;;;;2054150;28;20212;-51
2022/12/22 03:33:27;;;;;;;1.70;1.50;;;;;20.60;99105.00;;;;2063788;28;20648;-51
2022/12/22 03:34:27;;;;;;;2.27;1.97;;;;;20.60;99106.00;;;;2063482;28;20301;-52
2022/12/22 03:35:28;;;;;;;2.97;1.80;;;;;20.60;99109.00;;;;2063879;28;21044;-51
2022/12/22 03:36:28;;;;;;;2.17;1.60;;;;;20.60;99105.00;;;;2063987;28;20762;-51
2022/12/22 03:37:28;;;;;;;2.90;1.80;;;;;20.60;99104.00;;;;2070115;28;20698;-51
2022/12/22 03:38:29;;;;;;;2.00;1.80;;;;;20.60;99098.00;;;;2071892;28;20782;-51
2022/12/22 03:39:29;;;;;;;1.70;1.53;;;;;20.60;99103.00;;;;2070443;28;20585;-51
2022/12/22 03:40:30;;;;;;;2.03;1.80;;;;;20.60;99092.00;;;;2067507;28;20584;-53
2022/12/22 03:46:45;;;;;;;2.20;1.60;;;;;20.60;99095.00;;;;2068850;28;20214;-51
2022/12/22 03:47:46;;;;;;;1.50;1.40;;;;;20.60;99089.00;;;;2070901;28;20645;-52
2022/12/22 03:49:08;;;;;;;1.80;1.33;;;;;20.60;99092.00;;;;2065071;28;20647;-52
2022/12/22 03:50:06;;;;;;;1.33;1.23;;;;;20.60;99095.00;;;;2062970;28;20246;-51
2022/12/22 03:51:07;;;;;;;2.33;1.40;;;;;20.60;99085.00;;;;2063687;28;20303;-51
2022/12/22 03:52:07;;;;;;;1.63;1.40;;;;;20.60;99086.00;;;;2062500;28;20215;-52
2022/12/22 03:53:07;;;;;;;1.70;1.30;;;;;20.60;99085.00;;;;2067087;28;20213;-52
2022/12/22 03:54:08;;;;;;;1.37;1.23;;;;;20.60;99089.00;;;;2070012;28;20225;-52
2022/12/22 03:55:08;;;;;;;1.27;1.17;;;;;20.60;99078.00;;;;2070531;28;20218;-52
2022/12/22 03:56:09;;;;;;;1.27;1.17;;;;;20.60;99083.00;;;;2062238;28;20222;-51
2022/12/22 03:57:09;;;;;;;1.53;1.33;;;;;20.60;99078.00;;;;2068267;28;20222;-51
2022/12/22 03:58:09;;;;;;;2.07;1.50;;;;;20.60;99067.00;;;;2068373;28;20202;-52
2022/12/22 03:59:10;;;;;;;2.63;1.80;;;;;20.60;99074.00;;;;2062229;28;20270;-52
2022/12/22 04:00:10;;;;;;;1.63;1.23;;;;;20.60;99069.00;;;;2055677;28;20226;-52
2022/12/22 04:01:11;;;;;;;1.60;1.40;;;;;20.60;99063.00;;;;2063039;28;20551;-51
2022/12/22 04:02:11;;;;;;;1.70;1.27;;;;;20.60;99070.00;;;;2061689;28;20207;-52
2022/12/22 04:03:12;;;;;;;1.60;1.10;;;;;20.50;99072.00;;;;2062763;28;20230;-51
2022/12/22 04:04:13;;;;;;;1.50;1.10;;;;;20.50;99073.00;;;;2062478;28;20218;-51
2022/12/22 04:05:14;;;;;;;1.97;1.53;;;;;20.50;99066.00;;;;2062864;28;20215;-53
2022/12/22 04:06:15;;;;;;;1.50;1.10;;;;;20.50;99072.00;;;;2053954;28;20704;-51
2022/12/22 04:07:15;;;;;;;1.30;1.05;;;;;20.50;99073.00;;;;2054316;28;20215;-51
2022/12/22 04:08:16;;;;;;;1.30;1.10;;;;;20.50;99071.00;;;;2062557;28;20218;-50
2022/12/22 04:09:16;;;;;;;2.37;0.90;;;;;20.60;99067.00;;;;2063026;28;20226;-52
2022/12/22 04:12:54;;;;;;;1.88;1.20;;;;;20.60;99064.00;;;;2071309;28;20218;-51
2022/12/22 04:13:55;;;;;;;1.40;1.10;;;;;20.50;99062.00;;;;2070761;28;20217;-51
2022/12/22 04:14:55;;;;;;;1.20;1.10;;;;;20.60;99074.00;;;;2070713;28;20566;-51
2022/12/22 04:15:55;;;;;;;1.20;1.10;;;;;20.50;99066.00;;;;2070284;28;20534;-52
2022/12/22 04:16:56;;;;;;;1.33;1.20;;;;;20.50;99063.00;;;;2070827;28;20556;-51
2022/12/22 04:17:56;;;;;;;1.40;1.07;;;;;20.60;99059.00;;;;2070496;28;20694;-51
2022/12/22 04:18:57;;;;;;;1.10;0.90;;;;;20.50;99058.00;;;;2070314;28;21137;-51
2022/12/22 04:19:57;;;;;;;1.33;1.20;;;;;20.50;99056.00;;;;2070597;28;20221;-51
2022/12/22 04:20:57;;;;;;;1.00;0.90;;;;;20.50;99056.00;;;;2061600;28;20226;-51
2022/12/22 04:21:58;;;;;;;1.33;0.90;;;;;20.50;99058.00;;;;2051308;28;20242;-51
2022/12/22 04:22:58;;;;;;;2.20;1.10;;;;;20.50;99048.00;;;;2070252;28;20225;-52
2022/12/22 04:23:59;;;;;;;1.50;1.10;;;;;20.50;99050.00;;;;2070002;28;20228;-52
2022/12/22 04:24:59;;;;;;;1.30;1.00;;;;;20.50;99047.00;;;;2069700;28;20732;-52
2022/12/22 04:25:59;;;;;;;1.27;1.07;;;;;20.60;99056.00;;;;2068795;28;20746;-51
2022/12/22 04:27:00;;;;;;;1.50;0.93;;;;;20.50;99056.00;;;;2062972;28;20787;-51
2022/12/22 04:28:00;;;;;;;2.47;1.00;;;;;20.50;99057.00;;;;2062312;28;20936;-50
2022/12/22 04:29:00;;;;;;;1.50;0.80;;;;;20.40;99055.00;;;;2063024;28;20706;-50
2022/12/22 04:30:01;;;;;;;1.03;0.83;;;;;20.50;99057.00;;;;2062951;28;20211;-51
2022/12/22 04:31:01;;;;;;;1.20;0.87;;;;;20.50;99052.00;;;;2062816;28;20309;-52
2022/12/22 04:32:02;;;;;;;1.13;1.00;;;;;20.50;99052.00;;;;2062270;28;20218;-51
2022/12/22 04:33:02;;;;;;;1.03;0.83;;;;;20.50;99043.00;;;;2062973;28;20230;-51
2022/12/22 04:34:02;;;;;;;1.60;1.00;;;;;20.50;99054.00;;;;2063152;28;20265;-51
2022/12/22 04:35:03;;;;;;;1.13;0.87;;;;;20.50;99054.00;;;;2063197;28;20292;-52
2022/12/22 04:36:04;;;;;;;1.35;0.90;;;;;20.50;99050.00;;;;2063109;28;20238;-51
2022/12/22 04:37:04;;;;;;;1.60;1.00;;;;;20.50;99049.00;;;;2062863;28;20452;-51
2022/12/22 04:38:05;;;;;;;1.13;0.90;;;;;20.60;99039.00;;;;2062743;28;20223;-51
2022/12/22 04:39:05;;;;;;;1.83;0.83;;;;;20.60;99053.00;;;;2063201;28;20225;-52
2022/12/22 04:40:06;;;;;;;1.17;0.80;;;;;20.50;99056.00;;;;2063327;28;20269;-52
2022/12/22 04:41:06;;;;;;;1.30;0.90;;;;;20.50;99042.00;;;;2062638;28;20293;-52
2022/12/22 04:42:06;;;;;;;4.37;1.10;;;;;20.50;99042.00;;;;2066525;28;20268;-51
2022/12/22 04:43:07;;;;;;;1.17;0.80;;;;;20.50;99040.00;;;;2070913;28;20242;-51
2022/12/22 04:44:07;;;;;;;1.23;0.93;;;;;20.50;99041.00;;;;2070658;28;20222;-51
2022/12/22 04:45:08;;;;;;;1.80;0.93;;;;;20.50;99039.00;;;;2070826;28;20222;-51
2022/12/22 04:46:08;;;;;;;1.27;1.10;;;;;20.50;99038.00;;;;2062560;28;20215;-52
2022/12/22 04:47:08;;;;;;;1.13;0.90;;;;;20.50;99044.00;;;;2062591;28;20219;-52
2022/12/22 04:48:09;;;;;;;1.30;0.80;;;;;20.40;99037.00;;;;2062319;28;20321;-52
2022/12/22 04:49:09;;;;;;;1.10;0.70;;;;;20.40;99040.00;;;;2062431;28;20728;-51
2022/12/22 04:50:09;;;;;;;1.13;0.77;;;;;20.30;99036.00;;;;2066533;28;20703;-51
2022/12/22 04:51:10;;;;;;;0.90;0.70;;;;;20.50;99038.00;;;;2070578;28;20697;-52
2022/12/22 04:52:10;;;;;;;0.70;0.60;;;;;20.50;99037.00;;;;2069919;28;20334;-52
2022/12/22 04:53:10;;;;;;;1.17;0.80;;;;;20.50;99034.00;;;;2070814;28;20268;-52
2022/12/22 04:54:11;;;;;;;1.00;0.63;;;;;20.40;99034.00;;;;2069896;28;20249;-51
2022/12/22 04:55:11;;;;;;;2.23;0.60;;;;;20.40;99037.00;;;;2063130;28;20286;-52
2022/12/22 04:56:11;;;;;;;0.90;0.60;;;;;20.50;99033.00;;;;2062236;28;20217;-51
2022/12/22 04:57:12;;;;;;;1.63;0.80;;;;;20.40;99027.00;;;;2062748;28;20215;-51
2022/12/22 04:58:12;;;;;;;1.17;0.80;;;;;20.50;99035.00;;;;2062632;28;20238;-52
2022/12/22 04:59:12;;;;;;;1.10;0.70;;;;;20.50;99022.00;;;;2062133;28;20272;-51
2022/12/22 05:00:13;;;;;;;1.67;0.70;;;;;20.40;99032.00;;;;2062660;28;20215;-51
2022/12/22 05:01:15;;;;;;;1.07;0.80;;;;;20.50;99031.00;;;;2062717;28;20211;-51
2022/12/22 05:02:16;;;;;;;1.13;0.70;;;;;20.40;99016.00;;;;2061552;28;20465;-52
2022/12/22 05:03:16;;;;;;;1.10;0.80;;;;;20.40;99016.00;;;;2062756;28;20593;-51
2022/12/22 05:04:16;;;;;;;1.10;0.73;;;;;20.40;99023.00;;;;2062242;28;20211;-52
2022/12/22 05:05:16;;;;;;;1.10;0.87;;;;;20.40;99020.00;;;;2062282;28;20210;-51
2022/12/22 05:06:17;;;;;;;1.53;0.70;;;;;20.40;99024.00;;;;2062794;28;20239;-51
2022/12/22 05:07:17;;;;;;;0.90;0.60;;;;;20.40;99034.00;;;;2062893;28;20301;-51
2022/12/22 05:08:18;;;;;;;1.00;0.70;;;;;20.50;99019.00;;;;2062660;28;20707;-52
2022/12/22 05:09:18;;;;;;;1.20;0.70;;;;;20.40;99019.00;;;;2062839;28;20218;-52
2022/12/22 05:10:18;;;;;;;1.00;0.60;;;;;20.40;99018.00;;;;2062744;28;20211;-51
2022/12/22 05:11:18;;;;;;;0.77;0.67;;;;;20.40;99014.00;;;;2062707;28;20219;-51
2022/12/22 05:13:38;;;;;;;1.20;0.70;;;;;20.40;99017.00;;;;2067700;28;20734;-51
2022/12/22 05:14:38;;;;;;;1.20;0.60;;;;;20.40;99014.00;;;;2070582;28;20218;-52
2022/12/22 05:15:38;;;;;;;2.07;0.70;;;;;20.40;99020.00;;;;2071071;28;20245;-51
2022/12/22 05:16:38;;;;;;;1.00;0.77;;;;;20.40;99020.00;;;;2070860;28;20272;-51
2022/12/22 05:17:39;;;;;;;1.73;1.60;;;;;20.40;99011.00;;;;2070333;28;20217;-52
2022/12/22 05:18:40;;;;;;;1.10;0.60;;;;;20.40;99007.00;;;;2070765;28;20237;-52
2022/12/22 05:19:40;;;;;;;0.80;0.60;;;;;20.40;99009.00;;;;2070999;28;20636;-51
2022/12/22 05:20:40;;;;;;;0.83;0.67;;;;;20.40;99019.00;;;;2070438;28;20219;-51
2022/12/22 05:21:41;;;;;;;1.27;0.73;;;;;20.20;99031.00;;;;2070657;28;20214;-51
2022/12/22 05:22:41;;;;;;;1.23;0.50;;;;;20.40;99017.00;;;;2070291;28;20297;-52
2022/12/22 05:23:42;;;;;;;0.93;0.60;;;;;20.40;99018.00;;;;2070751;28;20683;-51
2022/12/22 05:24:42;;;;;;;0.90;0.60;;;;;20.40;99020.00;;;;2067363;28;20249;-51
2022/12/22 05:25:42;;;;;;;1.30;0.90;;;;;20.40;99011.00;;;;2062283;28;20218;-51
2022/12/22 05:26:42;;;;;;;0.90;0.60;;;;;20.40;99010.00;;;;2067974;28;20263;-52
2022/12/22 05:27:43;;;;;;;0.90;0.70;;;;;20.40;99009.00;;;;2070507;28;20238;-52
2022/12/22 05:28:45;;;;;;;2.00;0.50;;;;;20.40;99012.00;;;;2070672;28;20245;-51
2022/12/22 05:29:45;;;;;;;0.82;0.52;;;;;20.40;99006.00;;;;2070559;28;20254;-52
2022/12/22 05:30:45;;;;;;;0.80;0.50;;;;;20.40;99006.00;;;;2069752;28;20577;-51
2022/12/22 05:31:46;;;;;;;1.00;0.77;;;;;20.40;99005.00;;;;2070097;28;20631;-52
2022/12/22 05:32:46;;;;;;;0.70;0.60;;;;;20.30;99004.00;;;;2070108;28;20677;-52
2022/12/22 05:33:47;;;;;;;1.10;0.77;;;;;20.40;99003.00;;;;2070230;28;20617;-52
2022/12/22 05:34:47;;;;;;;0.80;0.50;;;;;20.40;99006.00;;;;2070726;28;21155;-52
2022/12/22 05:35:47;;;;;;;0.90;0.60;;;;;20.40;99007.00;;;;2070535;28;20214;-52
2022/12/22 05:36:48;;;;;;;0.70;0.50;;;;;20.40;99011.00;;;;2061721;28;20845;-51
2022/12/22 05:37:48;;;;;;;1.00;0.60;;;;;20.40;99007.00;;;;2061503;28;20215;-51
2022/12/22 05:38:48;;;;;;;1.00;0.90;;;;;20.40;99009.00;;;;2070708;28;20260;-52
2022/12/22 05:39:49;;;;;;;0.93;0.70;;;;;20.40;99008.00;;;;2070477;28;20237;-51
2022/12/22 05:40:49;;;;;;;0.90;0.60;;;;;20.40;99006.00;;;;2070444;28;20214;-52
2022/12/22 05:41:49;;;;;;;1.13;0.67;;;;;20.40;99012.00;;;;2069631;28;20214;-52
2022/12/22 05:42:49;;;;;;;1.10;0.70;;;;;20.40;99004.00;;;;2053983;28;20215;-51
2022/12/22 05:43:50;;;;;;;1.10;0.83;;;;;20.40;99006.00;;;;2053950;28;20262;-51
2022/12/22 05:44:50;;;;;;;0.80;0.57;;;;;20.40;99013.00;;;;2062376;28;20226;-51
2022/12/22 05:45:52;;;;;;;1.23;1.00;;;;;20.40;99006.00;;;;2062620;28;20203;-51
2022/12/22 05:46:52;;;;;;;0.70;0.50;;;;;20.40;99011.00;;;;2062467;28;20214;-52
2022/12/22 05:47:52;;;;;;;0.80;0.57;;;;;20.30;99012.00;;;;2063708;28;20703;-51
2022/12/22 05:48:53;;;;;;;0.80;0.50;;;;;20.40;99006.00;;;;2070578;28;20682;-51
2022/12/22 05:49:53;;;;;;;2.60;0.63;;;;;20.40;99014.00;;;;2061928;28;20741;-51
2022/12/22 05:50:53;;;;;;;0.60;0.40;;;;;20.40;99011.00;;;;2061997;28;20715;-51
2022/12/22 05:51:54;;;;;;;0.90;0.60;;;;;20.40;99006.00;;;;2069666;28;20642;-51
2022/12/22 05:52:55;;;;;;;0.75;0.60;;;;;20.40;99017.00;;;;2070393;28;20294;-52
2022/12/22 05:53:55;;;;;;;0.90;0.70;;;;;20.40;99004.00;;;;2070343;28;20202;-51
2022/12/22 05:54:55;;;;;;;0.80;0.60;;;;;20.40;99016.00;;;;2070642;28;20230;-52
2022/12/22 05:55:56;;;;;;;0.87;0.60;;;;;20.30;99005.00;;;;2061153;28;20744;-52
2022/12/22 05:56:57;;;;;;;1.08;0.50;;;;;20.30;99007.00;;;;2053874;28;20718;-51
2022/12/22 05:58:00;;;;;;;0.80;0.60;;;;;20.40;99009.00;;;;2053682;28;20230;-51
2022/12/22 05:59:00;;;;;;;0.90;0.68;;;;;20.40;99016.00;;;;2063179;28;20222;-52
2022/12/22 06:00:03;;;;;;;1.00;0.50;;;;;20.40;99011.00;;;;2069205;28;20219;-51
2022/12/22 06:01:03;;;;;;;0.95;0.50;;;;;20.40;99004.00;;;;2062583;28;20269;-52
2022/12/22 06:02:03;;;;;;;1.30;0.60;;;;;20.40;99009.00;;;;2061345;28;20219;-52
2022/12/22 06:03:04;;;;;;;0.80;0.57;;;;;20.40;99008.00;;;;2062156;28;20214;-52
2022/12/22 06:04:04;;;;;;;1.00;0.80;;;;;20.40;98998.00;;;;2062453;28;20218;-51
2022/12/22 06:05:05;;;;;;;0.80;0.60;;;;;20.40;99012.00;;;;2062286;28;20302;-51
2022/12/22 06:06:05;;;;;;;1.20;0.83;;;;;20.40;99011.00;;;;2062470;28;20257;-51
2022/12/22 06:07:06;;;;;;;1.50;0.70;;;;;20.50;99003.00;;;;2062548;28;20207;-52
2022/12/22 06:08:06;;;;;;;1.20;0.70;;;;;20.50;99012.00;;;;2061989;28;20227;-51
2022/12/22 06:09:06;;;;;;;1.10;0.70;;;;;20.50;99008.00;;;;2062423;28;20210;-51
2022/12/22 06:10:08;;;;;;;1.30;0.50;;;;;20.60;99003.00;;;;2062613;28;20218;-52
2022/12/22 06:11:08;;;;;;;0.82;0.57;;;;;20.60;99015.00;;;;2045909;28;20954;-51
2022/12/22 06:12:08;;;;;;;0.80;0.60;;;;;20.60;99012.00;;;;2045153;28;20394;-52
2022/12/22 06:13:09;;;;;;;0.70;0.47;;;;;20.60;99011.00;;;;2062362;28;20229;-52
2022/12/22 06:14:09;;;;;;;0.70;0.50;;;;;20.70;99012.00;;;;2062555;28;20214;-51
2022/12/22 06:15:11;;;;;;;1.43;0.50;;;;;20.70;99014.00;;;;2062700;28;20219;-51
2022/12/22 06:16:11;;;;;;;1.10;0.70;;;;;20.70;99008.00;;;;2062100;28;20293;-51
2022/12/22 06:17:11;;;;;;;1.20;0.53;;;;;20.70;99008.00;;;;2062287;28;20265;-51
2022/12/22 06:18:12;;;;;;;1.10;0.50;;;;;20.80;99016.00;;;;2061715;28;20219;-52
2022/12/22 06:19:12;;;;;;;0.80;0.60;;;;;20.80;99014.00;;;;2062419;28;20289;-51
2022/12/22 06:20:13;;;;;;;0.70;0.50;;;;;20.80;99019.00;;;;2062567;28;20211;-51
2022/12/22 06:21:13;;;;;;;0.80;0.50;;;;;20.80;99013.00;;;;2062560;28;20219;-52
2022/12/22 06:22:13;;;;;;;0.70;0.50;;;;;20.80;99017.00;;;;2061730;28;20632;-51
2022/12/22 06:23:14;;;;;;;0.90;0.50;;;;;20.80;99014.00;;;;2062430;28;20214;-51
2022/12/22 06:24:14;;;;;;;0.80;0.50;;;;;20.90;99017.00;;;;2061146;28;20210;-51
2022/12/22 06:25:14;;;;;;;0.93;0.53;;;;;20.90;99024.00;;;;2061898;28;20207;-52
2022/12/22 06:26:15;;;;;;;1.03;0.50;;;;;20.90;99025.00;;;;2060329;28;20215;-52
2022/12/22 06:27:15;;;;;;;1.10;0.50;;;;;20.90;99022.00;;;;2062630;28;20305;-52
2022/12/22 06:28:15;;;;;;;1.20;0.67;;;;;20.90;99020.00;;;;2062233;28;20684;-51
2022/12/22 06:29:15;;;;;;;1.00;0.60;;;;;21.00;99020.00;;;;2062253;28;20737;-52
2022/12/22 06:30:16;;;;;;;1.53;0.50;;;;;21.00;99021.00;;;;2060883;28;20683;-51
2022/12/22 06:31:16;;;;;;;1.80;0.60;;;;;21.00;99014.00;;;;2062131;28;20254;-52
2022/12/22 06:32:17;;;;;;;2.03;0.60;;;;;21.00;99019.00;;;;2061243;28;20211;-50
2022/12/22 06:33:18;;;;;;;2.35;0.52;;;;;21.10;99019.00;;;;2062560;28;20281;-52
2022/12/22 06:34:18;;;;;;;0.80;0.50;;;;;21.10;99019.00;;;;2062185;28;20272;-52
2022/12/22 06:35:19;;;;;;;3.60;0.60;;;;;21.10;99020.00;;;;2061645;28;20483;-52
2022/12/22 06:36:19;;;;;;;1.00;0.60;;;;;21.10;99024.00;;;;2061932;28;20222;-52
2022/12/22 06:37:19;;;;;;;1.10;0.70;;;;;21.10;99023.00;;;;2062630;28;20776;-52
2022/12/22 06:38:20;;;;;;;3.93;0.80;;;;;21.10;99025.00;;;;2062001;28;20683;-51
2022/12/22 06:39:20;;;;;;;1.50;0.90;;;;;21.10;99021.00;;;;2065148;28;20709;-52
2022/12/22 06:40:20;;;;;;;2.23;0.60;;;;;21.10;99028.00;;;;2061379;28;20215;-51
2022/12/22 06:43:59;;;;;;;1.00;0.60;;;;;21.20;99029.00;;;;2070123;28;20218;-51
2022/12/22 06:44:59;;;;;;;0.90;0.60;;;;;21.10;99031.00;;;;2071905;28;20206;-52
2022/12/22 06:45:59;;;;;;;1.33;0.50;;;;;21.20;99028.00;;;;2071731;28;20233;-52
2022/12/22 06:46:59;;;;;;;1.03;0.63;;;;;21.20;99033.00;;;;2071980;28;20216;-52
2022/12/22 06:48:00;;;;;;;0.90;0.60;;;;;21.20;99037.00;;;;2071610;28;20222;-52
2022/12/22 06:49:00;;;;;;;1.40;0.60;;;;;21.20;99037.00;;;;2063726;28;20206;-51
2022/12/22 06:50:00;;;;;;;4.00;0.60;;;;;21.20;99038.00;;;;2064000;28;20234;-52
2022/12/22 06:51:01;;;;;;;2.10;0.80;;;;;21.20;99037.00;;;;2064034;28;20211;-52
2022/12/22 06:52:01;;;;;;;5.10;0.70;;;;;21.20;99044.00;;;;2063014;28;20221;-52
2022/12/22 06:53:02;;;;;;;3.40;0.70;;;;;21.20;99051.00;;;;2063867;28;20211;-51
2022/12/22 06:54:02;;;;;;;1.03;0.60;;;;;21.20;99049.00;;;;2063047;28;20707;-52
2022/12/22 06:55:03;;;;;;;1.43;0.50;;;;;21.30;99049.00;;;;2064733;28;20703;-53
2022/12/22 06:56:03;;;;;;;1.07;0.53;;;;;21.20;99049.00;;;;2056370;28;20262;-52
2022/12/22 06:57:04;;;;;;;0.80;0.60;;;;;21.30;99049.00;;;;2052978;28;20466;-52
2022/12/22 06:58:04;;;;;;;2.53;0.50;;;;;21.30;99048.00;;;;2062653;28;20211;-51
2022/12/22 06:59:04;;;;;;;2.60;0.60;;;;;21.30;99051.00;;;;2063698;28;20261;-51
2022/12/22 07:00:05;;;;;;;1.93;0.50;;;;;21.30;99048.00;;;;2063112;28;20303;-51
2022/12/22 07:01:05;;;;;;;1.07;0.40;;;;;21.30;99056.00;;;;2063450;28;20230;-51
2022/12/22 07:02:06;;;;;;;0.83;0.50;;;;;21.30;99055.00;;;;2070894;28;20460;-51
2022/12/22 07:03:06;;;;;;;0.90;0.60;;;;;21.30;99050.00;;;;2071202;28;20246;-52
2022/12/22 07:04:07;;;;;;;1.27;0.60;;;;;21.30;99054.00;;;;2071830;28;20268;-52
2022/12/22 07:05:07;;;;;;;1.00;0.60;;;;;21.30;99067.00;;;;2071801;28;20211;-52
2022/12/22 07:06:08;;;;;;;1.13;0.60;;;;;21.30;99051.00;;;;2070605;28;20896;-52
2022/12/22 07:07:08;;;;;;;1.37;0.43;;;;;21.30;99063.00;;;;2061391;28;20215;-51
2022/12/22 07:08:08;;;;;;;1.53;1.23;;;;;21.30;99065.00;;;;2063513;28;20310;-52
2022/12/22 07:09:09;;;;;;;1.67;1.00;;;;;21.30;99052.00;;;;2063434;28;20218;-52
2022/12/22 07:10:10;;;;;;;1.70;1.50;;;;;21.30;99063.00;;;;2063816;28;20218;-51
2022/12/22 07:11:10;;;;;;;2.20;1.53;;;;;21.30;99060.00;;;;2063818;28;20234;-51
2022/12/22 07:12:10;;;;;;;3.60;2.60;;;;;21.30;99060.00;;;;2063245;28;20211;-52
2022/12/22 07:13:20;;;;;;;3.77;3.03;;;;;21.30;99063.00;;;;2047186;28;20236;-52
2022/12/22 07:14:20;;;;;;;3.78;3.38;;;;;21.30;99072.00;;;;2053838;28;20224;-51
2022/12/22 07:15:21;;;;;;;3.13;2.83;;;;;21.30;99067.00;;;;2071346;28;20221;-51
2022/12/22 07:16:21;;;;;;;4.57;4.07;;;;;21.40;99074.00;;;;2071168;28;20696;-50
2022/12/22 07:17:21;;;;;;;5.10;4.60;;;;;21.40;99073.00;;;;2069562;28;20694;-51
2022/12/22 07:18:22;;;;;;;6.10;5.30;;;;;21.40;99077.00;;;;2064550;28;20683;-52
2022/12/22 07:19:22;;;;;;;4.83;4.33;;;;;21.40;99083.00;;;;2071034;28;20740;-53
2022/12/22 07:20:22;;;;;;;9.13;7.57;;;;;21.40;99089.00;;;;2071177;28;20241;-51
2022/12/22 07:21:23;;;;;;;6.53;5.90;;;;;21.40;99091.00;;;;2071262;28;20210;-52
2022/12/22 07:22:23;;;;;;;8.43;7.47;;;;;21.40;99092.00;;;;2070770;28;20268;-51
2022/12/22 07:23:24;;;;;;;12.70;10.90;;;;;21.40;99093.00;;;;2065564;28;20206;-51
2022/12/22 07:24:24;;;;;;;11.13;9.93;;;;;21.40;99101.00;;;;2063019;28;20242;-51
2022/12/22 07:25:24;;;;;;;13.10;11.63;;;;;21.40;99103.00;;;;2063157;28;20458;-52
2022/12/22 07:26:25;;;;;;;11.63;10.43;;;;;21.40;99103.00;;;;2062704;28;20219;-52
2022/12/22 07:27:25;;;;;;;16.20;13.57;;;;;21.40;99109.00;;;;2062610;28;20215;-52
2022/12/22 07:28:25;;;;;;;15.83;13.20;;;;;21.40;99106.00;;;;2062617;28;20269;-52
2022/12/22 07:29:26;;;;;;;13.60;11.93;;;;;21.40;99110.00;;;;2063151;28;20226;-51
2022/12/22 07:30:26;;;;;;;14.63;13.00;;;;;21.40;99108.00;;;;2063211;28;20587;-52
2022/12/22 07:31:26;;;;;;;13.70;11.27;;;;;21.40;99118.00;;;;2063628;28;20745;-52
2022/12/22 07:32:27;;;;;;;15.77;12.70;;;;;21.40;99117.00;;;;2063096;28;20219;-51
2022/12/22 07:33:27;;;;;;;15.90;14.20;;;;;21.40;99123.00;;;;2063464;28;20229;-50
2022/12/22 07:34:28;;;;;;;17.30;14.13;;;;;21.40;99122.00;;;;2063319;28;20226;-51
2022/12/22 07:35:28;;;;;;;15.07;13.30;;;;;21.40;99127.00;;;;2063584;28;20215;-52
2022/12/22 07:36:28;;;;;;;15.53;13.90;;;;;21.40;99125.00;;;;2063605;28;20687;-52
2022/12/22 07:37:29;;;;;;;18.13;14.83;;;;;21.40;99123.00;;;;2063485;28;20229;-51
2022/12/22 07:38:31;;;;;;;16.37;14.67;;;;;21.50;99125.00;;;;2062795;28;20215;-52
2022/12/22 07:39:32;;;;;;;18.33;15.40;;;;;21.50;99122.00;;;;2062685;28;20223;-51
2022/12/22 07:40:32;;;;;;;19.40;16.17;;;;;21.50;99136.00;;;;2063335;28;20230;-51
2022/12/22 07:42:58;;;;;;;20.55;17.25;;;;;21.50;99146.00;;;;2061458;28;20215;-52
2022/12/22 07:43:59;;;;;;;21.98;18.08;;;;;21.50;99146.00;;;;2066137;28;20228;-51
2022/12/22 07:44:59;;;;;;;22.90;19.37;;;;;21.50;99146.00;;;;2070710;28;20252;-52
2022/12/22 07:45:59;;;;;;;21.80;18.93;;;;;21.50;99150.00;;;;2071564;28;20233;-52
2022/12/22 07:47:00;;;;;;;22.90;19.80;;;;;21.50;99156.00;;;;2071470;28;20218;-52
2022/12/22 07:48:00;;;;;;;21.07;18.93;;;;;21.50;99151.00;;;;2071377;28;20309;-52
2022/12/22 07:50:31;;;;;;;23.08;20.58;;;;;21.50;99156.00;;;;2059330;28;20211;-51
2022/12/22 07:51:35;;;;;;;23.50;20.70;;;;;21.50;99159.00;;;;2066385;28;20214;-52
2022/12/22 07:52:35;;;;;;;23.67;20.20;;;;;21.50;99162.00;;;;2062664;28;20230;-52
2022/12/22 07:53:35;;;;;;;23.60;20.77;;;;;21.50;99165.00;;;;2063104;28;20226;-51
2022/12/22 07:54:36;;;;;;;26.03;22.40;;;;;21.50;99172.00;;;;2053480;28;20226;-52
2022/12/22 07:55:36;;;;;;;25.87;22.53;;;;;21.50;99161.00;;;;2042699;28;20216;-50
2022/12/22 07:56:37;;;;;;;24.17;21.67;;;;;21.50;99166.00;;;;2053491;28;20223;-52
2022/12/22 07:57:37;;;;;;;24.60;21.97;;;;;21.50;99162.00;;;;2058496;28;20224;-51
2022/12/22 07:58:38;;;;;;;25.63;22.77;;;;;21.50;99167.00;;;;2062101;28;20591;-52
2022/12/22 07:59:38;;;;;;;25.57;21.97;;;;;21.50;99171.00;;;;2062429;28;20230;-53
2022/12/22 08:00:38;;;;;;;24.90;21.90;;;;;21.50;99166.00;;;;2062442;28;20225;-53
2022/12/22 08:01:40;;;;;;;25.60;22.80;;;;;21.50;99167.00;;;;2062410;28;20223;-52
2022/12/22 08:02:40;;;;;;;24.77;22.17;;;;;21.50;99173.00;;;;2061706;28;20215;-52
2022/12/22 08:03:41;;;;;;;22.90;20.60;;;;;21.60;99165.00;;;;2070343;28;20246;-52
2022/12/22 08:04:41;;;;;;;23.80;21.40;;;;;21.60;99180.00;;;;2061301;28;20690;-51
2022/12/22 08:05:41;;;;;;;23.90;21.17;;;;;21.50;99177.00;;;;2070026;28;20288;-52
2022/12/22 08:06:41;;;;;;;24.10;21.60;;;;;21.50;99177.00;;;;2070102;28;20214;-52
2022/12/22 08:07:42;;;;;;;23.20;20.77;;;;;21.60;99181.00;;;;2062028;28;20245;-52
2022/12/22 08:08:42;;;;;;;23.40;20.90;;;;;21.60;99182.00;;;;2061710;28;20227;-52
2022/12/22 08:09:42;;;;;;;23.03;20.53;;;;;21.60;99173.00;;;;2062816;28;20326;-52
2022/12/22 08:10:43;;;;;;;23.50;21.00;;;;;21.60;99183.00;;;;2062904;28;20767;-52
2022/12/22 08:11:43;;;;;;;24.23;21.10;;;;;21.60;99177.00;;;;2062487;28;20215;-52
2022/12/22 08:12:43;;;;;;;23.70;21.10;;;;;21.60;99183.00;;;;2062438;28;20219;-52
2022/12/22 08:13:45;;;;;;;23.63;19.80;;;;;21.60;99172.00;;;;2062788;28;20265;-51
2022/12/22 08:14:47;;;;;;;23.77;19.98;;;;;21.60;99180.00;;;;2062427;28;20717;-52
2022/12/22 08:15:47;;;;;;;22.40;20.05;;;;;21.60;99186.00;;;;2062606;28;20246;-52
2022/12/22 08:16:47;;;;;;;21.93;19.83;;;;;21.70;99187.00;;;;2062744;28;20269;-51
2022/12/22 08:17:48;;;;;;;23.27;20.87;;;;;21.70;99182.00;;;;2062615;28;20223;-51
2022/12/22 08:18:48;;;;;;;22.20;19.50;;;;;21.70;99192.00;;;;2062415;28;20246;-52
2022/12/22 08:19:48;;;;;;;23.23;20.07;;;;;21.70;99188.00;;;;2062586;28;20262;-52
2022/12/22 08:20:49;;;;;;;21.60;18.83;;;;;21.70;99196.00;;;;2062657;28;20219;-52
2022/12/22 08:21:50;;;;;;;21.15;18.88;;;;;21.70;99191.00;;;;2053740;28;20215;-51
2022/12/22 08:22:50;;;;;;;23.17;19.33;;;;;21.70;99195.00;;;;2054099;28;20285;-52
2022/12/22 08:23:50;;;;;;;22.83;19.43;;;;;21.70;99195.00;;;;2062587;28;20211;-52
2022/12/22 08:24:51;;;;;;;20.80;18.43;;;;;21.70;99203.00;;;;2054129;28;20223;-51
2022/12/22 08:25:56;;;;;;;21.80;19.40;;;;;21.70;99201.00;;;;2054058;28;20211;-51
2022/12/22 08:26:59;;;;;;;21.40;19.15;;;;;21.70;99208.00;;;;2045505;28;20460;-51
2022/12/22 08:27:59;;;;;;;20.92;18.73;;;;;21.70;99196.00;;;;2046528;28;20212;-52
2022/12/22 08:29:09;;;;;;;29.63;19.73;;;;;21.70;99204.00;;;;2044036;28;20219;-52
2022/12/22 08:30:09;;;;;;;22.95;18.25;;;;;21.70;99202.00;;;;2062071;28;20215;-52
2022/12/22 08:31:10;;;;;;;21.27;18.80;;;;;21.70;99209.00;;;;2046199;28;20230;-51
2022/12/22 08:32:10;;;;;;;20.60;18.40;;;;;21.70;99222.00;;;;2052245;28;20247;-52
2022/12/22 08:33:10;;;;;;;20.17;18.00;;;;;21.70;99232.00;;;;2062343;28;20213;-52
2022/12/22 08:34:12;;;;;;;19.33;17.07;;;;;21.70;99239.00;;;;2061944;28;20702;-52
2022/12/22 08:35:13;;;;;;;21.35;18.35;;;;;21.70;99245.00;;;;2053851;28;20668;-54
2022/12/22 08:36:13;;;;;;;18.93;16.93;;;;;21.70;99243.00;;;;2053971;28;20355;-52
2022/12/22 08:37:14;;;;;;;21.87;18.17;;;;;21.70;99249.00;;;;2054191;28;20215;-52
2022/12/22 08:38:14;;;;;;;20.53;18.30;;;;;21.70;99238.00;;;;2046068;28;20208;-52
2022/12/22 08:39:15;;;;;;;20.47;18.33;;;;;21.70;99249.00;;;;2060454;28;20260;-51
2022/12/22 08:40:18;;;;;;;19.23;17.33;;;;;21.80;99260.00;;;;2062217;28;20214;-52
2022/12/22 08:41:48;;;;;;;19.65;17.60;;;;;21.80;99258.00;;;;2062429;28;20219;-52
2022/12/22 08:42:39;;;;;;;20.58;17.70;;;;;21.80;99265.00;;;;2064371;28;20219;-52